createdAt,value
2022-11-09T00:01:23.207Z,76.47
2022-11-09T00:04:04.348Z,76.20
2022-11-09T00:06:33.139Z,76.33
2022-11-09T00:09:08.182Z,76.44
2022-11-09T00:11:37.892Z,75.94
2022-11-09T00:14:05.326Z,76.76
2022-11-09T00:16:32.432Z,77.35
2022-11-09T00:18:59.570Z,77.58
2022-11-09T00:21:26.790Z,78.06
2022-11-09T00:23:54.559Z,77.49
2022-11-09T00:26:22.368Z,77.97
2022-11-09T00:28:50.409Z,77.34
2022-11-09T00:31:21.309Z,77.46
2022-11-09T00:33:54.194Z,76.67
2022-11-09T00:36:23.738Z,77.89
2022-11-09T00:38:55.134Z,77.07
2022-11-09T00:41:22.894Z,77.68
2022-11-09T00:43:50.833Z,77.43
2022-11-09T00:46:21.354Z,77.21
2022-11-09T00:48:48.475Z,77.80
2022-11-09T00:51:15.646Z,78.15
2022-11-09T00:53:43.450Z,77.81
2022-11-09T00:56:13.558Z,78.39
2022-11-09T00:58:43.609Z,78.01
2022-11-09T01:01:16.519Z,78.79
2022-11-09T01:03:51.472Z,78.40
2022-11-09T01:06:24.344Z,78.31
2022-11-09T01:08:52.474Z,78.32
2022-11-09T01:11:24.233Z,77.84
2022-11-09T01:13:55.475Z,77.28
2022-11-09T01:16:24.446Z,77.31
2022-11-09T01:18:58.893Z,77.65
2022-11-09T01:21:27.411Z,77.20
2022-11-09T01:23:58.324Z,77.09
2022-11-09T01:26:25.591Z,77.27
2022-11-09T01:28:52.994Z,77.25
2022-11-09T01:31:22.129Z,77.56
2022-11-09T01:33:55.097Z,77.35
2022-11-09T01:36:35.193Z,77.63
2022-11-09T01:39:11.185Z,76.72
2022-11-09T01:41:38.183Z,76.92
2022-11-09T01:44:40.371Z,76.42
2022-11-09T01:47:21.865Z,77.21
2022-11-09T01:50:00.214Z,76.80
2022-11-09T01:52:40.172Z,76.41
2022-11-09T01:55:16.740Z,77.01
2022-11-09T01:57:54.789Z,76.92
2022-11-09T02:00:21.905Z,77.09
2022-11-09T02:02:58.443Z,76.47
2022-11-09T02:05:33.250Z,76.68
2022-11-09T02:08:04.323Z,76.52
2022-11-09T02:11:08.917Z,76.88
2022-11-09T02:13:49.498Z,77.25
2022-11-09T02:16:19.524Z,78.46
2022-11-09T02:18:55.729Z,78.46
2022-11-09T02:21:27.245Z,78.37
2022-11-09T02:23:54.819Z,78.82
2022-11-09T02:26:38.794Z,79.11
2022-11-09T02:29:10.186Z,78.21
2022-11-09T02:31:42.773Z,78.84
2022-11-09T02:34:20.285Z,78.72
2022-11-09T02:36:47.368Z,78.56
2022-11-09T02:39:20.092Z,78.40
2022-11-09T02:42:03.341Z,78.99
2022-11-09T02:44:37.595Z,78.65
2022-11-09T02:47:04.564Z,78.61
2022-11-09T02:49:31.556Z,79.93
2022-11-09T02:51:58.602Z,80.20
2022-11-09T02:54:25.584Z,80.82
2022-11-09T02:56:52.536Z,81.49
2022-11-09T02:59:22.855Z,81.70
2022-11-09T03:01:49.778Z,81.96
2022-11-09T03:04:16.966Z,82.55
2022-11-09T03:06:44.325Z,83.05
2022-11-09T03:09:13.079Z,82.72
2022-11-09T03:11:42.002Z,82.67
2022-11-09T03:14:09.829Z,83.30
2022-11-09T03:16:40.366Z,83.02
2022-11-09T03:19:07.822Z,83.20
2022-11-09T03:21:35.259Z,83.68
2022-11-09T03:24:02.443Z,84.05
2022-11-09T03:26:29.447Z,83.93
2022-11-09T03:28:56.382Z,84.32
2022-11-09T03:31:23.347Z,84.66
2022-11-09T03:33:50.325Z,84.19
2022-11-09T03:36:17.312Z,84.84
2022-11-09T03:38:44.263Z,84.20
2022-11-09T03:41:11.197Z,83.53
2022-11-09T03:43:38.149Z,82.88
2022-11-09T03:46:05.125Z,81.86
2022-11-09T03:48:32.092Z,80.95
2022-11-09T03:50:58.991Z,81.01
2022-11-09T03:53:25.964Z,80.86
2022-11-09T03:55:52.876Z,80.66
2022-11-09T03:58:19.817Z,80.23
2022-11-09T04:00:47.619Z,82.47
2022-11-09T04:03:16.106Z,82.50
2022-11-09T04:05:43.081Z,83.33
2022-11-09T04:08:13.163Z,82.07
2022-11-09T04:10:40.082Z,81.18
2022-11-09T04:13:07.068Z,81.01
2022-11-09T04:15:34.227Z,81.46
2022-11-09T04:18:03.567Z,82.30
2022-11-09T04:20:34.616Z,81.84
2022-11-09T04:23:05.713Z,80.97
2022-11-09T04:25:36.926Z,82.11
2022-11-09T04:28:07.086Z,80.92
2022-11-09T04:30:37.010Z,80.71
2022-11-09T04:33:05.610Z,81.04
2022-11-09T04:35:34.199Z,81.00
2022-11-09T04:38:06.474Z,80.39
2022-11-09T04:40:35.861Z,80.16
2022-11-09T04:43:06.213Z,80.62
2022-11-09T04:45:35.142Z,80.84
2022-11-09T04:48:05.963Z,80.21
2022-11-09T04:50:33.724Z,80.62
2022-11-09T04:53:14.125Z,80.47
2022-11-09T04:55:41.863Z,80.25
2022-11-09T04:58:09.498Z,79.73
2022-11-09T05:00:41.306Z,80.17
2022-11-09T05:03:08.796Z,80.61
2022-11-09T05:05:38.334Z,80.83
2022-11-09T05:08:06.566Z,82.45
2022-11-09T05:10:34.726Z,81.56
2022-11-09T05:13:10.176Z,82.14
2022-11-09T05:15:37.744Z,81.12
2022-11-09T05:18:05.886Z,82.19
2022-11-09T05:20:33.809Z,82.76
2022-11-09T05:23:20.795Z,82.58
2022-11-09T05:25:48.172Z,82.39
2022-11-09T05:28:15.411Z,82.15
2022-11-09T05:30:42.571Z,82.44
2022-11-09T05:33:09.751Z,82.63
2022-11-09T05:35:36.795Z,83.24
2022-11-09T05:38:03.844Z,83.98
2022-11-09T05:40:32.440Z,85.18
2022-11-09T05:42:59.922Z,84.30
2022-11-09T05:45:42.518Z,84.74
2022-11-09T05:48:12.621Z,84.79
2022-11-09T05:50:43.684Z,85.48
2022-11-09T05:53:12.814Z,84.89
2022-11-09T05:55:40.218Z,85.62
2022-11-09T05:58:08.037Z,85.58
2022-11-09T06:00:36.097Z,84.71
2022-11-09T06:03:13.224Z,85.61
2022-11-09T06:05:44.338Z,84.94
2022-11-09T06:08:15.518Z,84.90
2022-11-09T06:10:43.183Z,84.49
2022-11-09T06:13:15.956Z,84.76
2022-11-09T06:15:44.499Z,84.81
2022-11-09T06:18:11.904Z,84.29
2022-11-09T06:20:40.172Z,83.78
2022-11-09T06:23:13.528Z,84.64
2022-11-09T06:25:43.911Z,84.39
2022-11-09T06:28:10.915Z,85.33
2022-11-09T06:30:38.063Z,84.74
2022-11-09T06:33:07.912Z,84.17
2022-11-09T06:35:35.465Z,84.55
2022-11-09T06:38:05.300Z,84.68
2022-11-09T06:40:37.259Z,84.88
2022-11-09T06:43:07.207Z,84.60
2022-11-09T06:45:34.790Z,84.04
2022-11-09T06:48:04.757Z,84.54
2022-11-09T06:50:37.056Z,84.47
2022-11-09T06:53:10.693Z,84.88
2022-11-09T06:55:38.587Z,84.21
2022-11-09T06:58:18.735Z,84.23
2022-11-09T07:00:46.183Z,84.60
2022-11-09T07:03:19.424Z,83.40
2022-11-09T07:05:56.414Z,84.08
2022-11-09T07:08:23.505Z,83.52
2022-11-09T07:10:50.506Z,83.86
2022-11-09T07:13:17.654Z,82.76
2022-11-09T07:15:44.929Z,83.54
2022-11-09T07:18:13.220Z,83.48
2022-11-09T07:20:40.421Z,83.80
2022-11-09T07:23:07.579Z,84.61
2022-11-09T07:25:37.217Z,84.00
2022-11-09T07:28:08.569Z,84.12
2022-11-09T07:30:39.423Z,85.09
2022-11-09T07:33:22.858Z,84.00
2022-11-09T07:35:50.273Z,85.13
2022-11-09T07:38:19.634Z,85.78
2022-11-09T07:40:46.892Z,87.28
2022-11-09T07:43:14.178Z,87.13
2022-11-09T07:45:41.505Z,88.36
2022-11-09T07:48:12.272Z,87.74
2022-11-09T07:50:41.159Z,87.69
2022-11-09T07:53:14.578Z,87.77
2022-11-09T07:55:42.604Z,86.79
2022-11-09T07:58:15.673Z,86.49
2022-11-09T08:00:44.225Z,86.82
2022-11-09T08:03:11.895Z,86.37
2022-11-09T08:05:39.727Z,87.04
2022-11-09T08:08:10.875Z,86.96
2022-11-09T08:10:39.584Z,86.82
2022-11-09T08:13:13.594Z,87.41
2022-11-09T08:15:42.407Z,87.12
2022-11-09T08:18:16.501Z,87.29
2022-11-09T08:22:53.818Z,87.98
2022-11-09T08:25:20.818Z,88.70
2022-11-09T08:27:47.883Z,88.76
2022-11-09T08:30:21.339Z,87.89
2022-11-09T08:32:49.564Z,88.99
2022-11-09T08:35:21.930Z,88.67
2022-11-09T08:37:51.759Z,88.40
2022-11-09T08:40:24.467Z,88.51
2022-11-09T08:42:53.450Z,88.31
2022-11-09T08:45:21.552Z,87.99
2022-11-09T08:47:48.672Z,88.01
2022-11-09T08:50:16.410Z,88.02
2022-11-09T08:52:43.724Z,88.07
2022-11-09T08:55:10.936Z,88.44
2022-11-09T08:57:38.149Z,87.45
2022-11-09T09:00:06.726Z,87.33
2022-11-09T09:02:34.256Z,87.03
2022-11-09T09:05:12.608Z,87.23
2022-11-09T09:07:39.784Z,86.56
2022-11-09T09:10:13.215Z,87.15
2022-11-09T09:12:40.552Z,86.87
2022-11-09T09:15:08.794Z,85.75
2022-11-09T09:17:36.083Z,86.37
2022-11-09T09:20:04.243Z,86.80
2022-11-09T09:22:32.373Z,86.09
2022-11-09T09:24:59.908Z,86.80
2022-11-09T09:27:29.347Z,87.05
2022-11-09T09:30:00.324Z,86.59
2022-11-09T09:32:27.669Z,86.09
2022-11-09T09:34:54.999Z,86.19
2022-11-09T09:37:22.309Z,86.74
2022-11-09T09:39:49.417Z,86.79
2022-11-09T09:42:30.601Z,86.24
2022-11-09T09:45:21.699Z,85.24
2022-11-09T09:48:40.398Z,84.52
2022-11-09T09:51:28.605Z,84.90
2022-11-09T09:54:27.060Z,85.05
2022-11-09T09:56:59.908Z,84.93
2022-11-09T09:59:48.392Z,84.71
2022-11-09T10:02:29.862Z,85.58
2022-11-09T10:05:03.415Z,84.76
2022-11-09T10:08:04.314Z,84.60
2022-11-09T10:11:16.310Z,84.65
2022-11-09T10:14:28.337Z,85.74
2022-11-09T10:17:41.200Z,84.18
2022-11-09T10:20:53.534Z,84.61
2022-11-09T10:24:11.340Z,84.73
2022-11-09T10:26:54.402Z,84.99
2022-11-09T10:30:04.065Z,84.15
2022-11-09T10:32:33.036Z,83.79
2022-11-09T10:35:35.463Z,84.63
2022-11-09T10:38:03.011Z,84.47
2022-11-09T10:41:24.957Z,84.14
2022-11-09T10:43:52.133Z,84.30
2022-11-09T10:46:21.322Z,84.56
2022-11-09T10:48:48.694Z,84.10
2022-11-09T10:51:55.227Z,82.54
2022-11-09T10:54:28.123Z,82.75
2022-11-09T10:57:22.936Z,82.84
2022-11-09T11:00:04.170Z,81.59
2022-11-09T11:02:31.092Z,82.07
2022-11-09T11:05:07.571Z,81.85
2022-11-09T11:07:40.477Z,81.82
2022-11-09T11:10:18.219Z,80.61
2022-11-09T11:13:36.499Z,81.38
2022-11-09T11:16:35.419Z,80.96
2022-11-09T11:19:41.701Z,80.15
2022-11-09T11:22:29.717Z,80.30
2022-11-09T11:25:24.168Z,80.84
2022-11-09T11:28:30.335Z,79.48
2022-11-09T11:31:46.932Z,79.20
2022-11-09T11:35:16.398Z,79.18
2022-11-09T11:38:36.655Z,79.52
2022-11-09T11:42:14.863Z,79.88
2022-11-09T11:45:40.736Z,80.04
2022-11-09T11:49:01.067Z,79.58
2022-11-09T11:51:43.695Z,77.80
2022-11-09T11:55:26.658Z,77.05
2022-11-09T11:58:41.282Z,76.07
2022-11-09T12:01:53.404Z,75.50
2022-11-09T12:05:15.162Z,76.42
2022-11-09T12:07:59.560Z,75.52
2022-11-09T12:11:16.507Z,75.56
2022-11-09T12:14:36.237Z,75.00
2022-11-09T12:17:50.322Z,75.12
2022-11-09T12:20:58.866Z,74.93
2022-11-09T12:24:16.772Z,74.28
2022-11-09T12:27:40.560Z,73.27
2022-11-09T12:31:19.896Z,74.30
2022-11-09T12:35:02.045Z,74.80
2022-11-09T12:37:39.503Z,75.42
2022-11-09T12:40:35.545Z,75.71
2022-11-09T12:43:25.772Z,76.04
2022-11-09T12:45:55.076Z,75.77
2022-11-09T12:48:46.906Z,74.90
2022-11-09T12:51:21.131Z,75.31
2022-11-09T12:54:28.086Z,75.47
2022-11-09T12:57:40.273Z,75.59
2022-11-09T13:00:28.715Z,76.08
2022-11-09T13:03:16.183Z,76.19
2022-11-09T13:05:47.580Z,76.91
2022-11-09T13:09:21.605Z,75.25
2022-11-09T13:11:53.872Z,74.85
2022-11-09T13:17:24.604Z,74.97
2022-11-09T13:19:55.308Z,75.19
2022-11-09T13:22:26.272Z,75.69
2022-11-09T13:25:22.840Z,76.08
2022-11-09T13:27:57.827Z,75.89
2022-11-09T13:30:43.566Z,75.92
2022-11-09T13:33:24.892Z,75.72
2022-11-09T13:36:42.241Z,76.67
2022-11-09T13:39:32.753Z,76.06
2022-11-09T13:42:12.514Z,76.39
2022-11-09T13:44:59.084Z,76.51
2022-11-09T13:47:34.778Z,77.36
2022-11-09T13:50:08.772Z,77.42
2022-11-09T13:52:52.698Z,77.35
2022-11-09T13:55:42.685Z,77.39
2022-11-09T13:58:33.549Z,77.80
2022-11-09T14:01:00.572Z,77.81
2022-11-09T14:03:31.687Z,78.16
2022-11-09T14:06:02.634Z,78.16
2022-11-09T14:08:40.487Z,78.33
2022-11-09T14:11:49.730Z,77.78
2022-11-09T14:14:57.632Z,78.13
2022-11-09T14:17:58.458Z,78.31
2022-11-09T14:20:52.217Z,79.06
2022-11-09T14:23:29.877Z,79.23
2022-11-09T14:27:11.208Z,79.02
2022-11-09T14:29:49.025Z,78.94
2022-11-09T14:32:30.358Z,79.58
2022-11-09T14:35:26.619Z,79.23
2022-11-09T14:37:58.895Z,79.28
2022-11-09T14:40:29.729Z,80.13
2022-11-09T14:43:16.698Z,80.16
2022-11-09T14:46:00.362Z,79.85
2022-11-09T14:48:29.870Z,80.47
2022-11-09T14:51:04.758Z,80.72
2022-11-09T14:54:18.762Z,80.50
2022-11-09T14:56:47.061Z,80.23
2022-11-09T14:59:30.496Z,81.38
2022-11-09T15:02:08.057Z,81.42
2022-11-09T15:05:05.017Z,81.21
2022-11-09T15:07:36.506Z,81.90
2022-11-09T15:10:17.681Z,81.33
2022-11-09T15:12:55.005Z,81.63
2022-11-09T15:15:27.842Z,82.66
2022-11-09T15:17:55.541Z,82.68
2022-11-09T15:20:32.172Z,83.80
2022-11-09T15:23:23.066Z,83.58
2022-11-09T15:25:50.489Z,83.00
2022-11-09T15:28:26.635Z,83.82
2022-11-09T15:30:56.861Z,84.35
2022-11-09T15:34:20.564Z,83.82
2022-11-09T15:36:55.452Z,84.54
2022-11-09T15:39:24.365Z,84.28
2022-11-09T15:41:51.469Z,84.47
2022-11-09T15:44:20.592Z,83.91
2022-11-09T15:47:05.146Z,85.03
2022-11-09T15:49:32.182Z,84.58
2022-11-09T15:51:59.394Z,83.93
2022-11-09T15:54:26.458Z,84.99
2022-11-09T15:56:53.748Z,84.70
2022-11-09T15:59:26.815Z,85.37
2022-11-09T16:01:54.543Z,85.86
2022-11-09T16:04:23.315Z,85.73
2022-11-09T16:06:50.427Z,86.32
2022-11-09T16:09:17.644Z,86.21
2022-11-09T16:11:44.658Z,86.08
2022-11-09T16:14:11.680Z,86.23
2022-11-09T16:16:38.914Z,86.29
2022-11-09T16:19:05.977Z,86.79
2022-11-09T16:21:33.065Z,86.49
2022-11-09T16:24:00.194Z,87.32
2022-11-09T16:26:30.004Z,87.06
2022-11-09T16:28:56.965Z,87.39
2022-11-09T16:31:48.073Z,87.40
2022-11-09T16:34:11.454Z,88.27
2022-11-09T16:36:46.426Z,88.97
2022-11-09T16:39:18.755Z,88.12
2022-11-09T16:41:50.232Z,88.00
2022-11-09T16:44:23.750Z,87.97
2022-11-09T16:46:52.038Z,87.82
2022-11-09T16:49:19.214Z,87.90
2022-11-09T16:51:46.234Z,87.87
2022-11-09T16:54:13.247Z,88.17
2022-11-09T16:56:40.317Z,87.73
2022-11-09T16:59:07.356Z,88.06
2022-11-09T17:01:34.453Z,88.36
2022-11-09T17:04:01.586Z,89.01
2022-11-09T17:06:28.681Z,89.63
2022-11-09T17:08:59.066Z,88.79
2022-11-09T17:11:26.210Z,88.80
2022-11-09T17:13:59.202Z,88.80
2022-11-09T17:16:27.123Z,89.26
2022-11-09T17:18:57.183Z,89.47
2022-11-09T17:21:27.524Z,88.14
2022-11-09T17:23:56.992Z,89.34
2022-11-09T17:26:26.254Z,89.37
2022-11-09T17:28:53.443Z,89.03
2022-11-09T17:31:23.790Z,89.10
2022-11-09T17:33:50.774Z,88.25
2022-11-09T17:36:35.218Z,88.15
2022-11-09T17:39:06.376Z,89.62
2022-11-09T17:41:33.434Z,89.50
2022-11-09T17:44:02.043Z,90.02
2022-11-09T17:46:29.042Z,88.71
2022-11-09T17:48:56.049Z,88.91
2022-11-09T17:51:24.304Z,89.26
2022-11-09T17:53:51.832Z,88.56
2022-11-09T17:56:18.920Z,89.12
2022-11-09T17:58:47.084Z,89.27
2022-11-09T18:01:19.830Z,88.89
2022-11-09T18:03:47.190Z,88.60
2022-11-09T18:06:19.982Z,87.94
2022-11-09T18:09:03.557Z,86.99
2022-11-09T18:11:34.807Z,88.36
2022-11-09T18:14:01.889Z,87.91
2022-11-09T18:16:28.855Z,87.25
2022-11-09T18:19:04.292Z,88.10
2022-11-09T18:21:33.394Z,87.93
2022-11-09T18:24:00.596Z,88.29
2022-11-09T18:26:27.809Z,88.78
2022-11-09T18:28:57.073Z,88.63
2022-11-09T18:31:24.544Z,88.10
2022-11-09T18:33:51.737Z,87.85
2022-11-09T18:36:21.505Z,88.81
2022-11-09T18:38:53.902Z,88.64
2022-11-09T18:41:23.631Z,88.87
2022-11-09T18:43:53.921Z,87.78
2022-11-09T18:46:22.440Z,88.60
2022-11-09T18:48:53.984Z,88.12
2022-11-09T18:51:21.452Z,86.76
2022-11-09T18:53:49.581Z,86.98
2022-11-09T18:56:24.373Z,87.31
2022-11-09T18:58:55.026Z,87.89
2022-11-09T19:01:25.712Z,87.24
2022-11-09T19:03:58.973Z,87.66
2022-11-09T19:06:39.495Z,87.02
2022-11-09T19:09:31.349Z,87.07
2022-11-09T19:12:04.396Z,86.97
2022-11-09T19:14:31.656Z,86.51
2022-11-09T19:17:04.622Z,86.49
2022-11-09T19:19:31.629Z,86.44
2022-11-09T19:21:59.671Z,85.72
2022-11-09T19:24:28.695Z,85.84
2022-11-09T19:29:37.997Z,86.26
2022-11-09T19:32:11.128Z,86.11
2022-11-09T19:34:38.189Z,85.72
2022-11-09T19:37:05.304Z,85.19
2022-11-09T19:39:34.626Z,85.42
2022-11-09T19:42:03.073Z,85.94
2022-11-09T19:44:33.919Z,85.19
2022-11-09T19:47:01.215Z,85.31
2022-11-09T19:49:28.394Z,85.86
2022-11-09T19:52:07.760Z,85.56
2022-11-09T19:54:35.529Z,85.63
2022-11-09T19:57:02.931Z,85.86
2022-11-09T19:59:30.497Z,86.21
2022-11-09T20:01:57.902Z,85.73
2022-11-09T20:04:25.372Z,85.95
2022-11-09T20:06:52.756Z,85.62
2022-11-09T20:09:19.835Z,86.52
2022-11-09T20:12:06.148Z,87.63
2022-11-09T20:14:33.112Z,87.06
2022-11-09T20:17:03.690Z,87.85
2022-11-09T20:19:31.023Z,88.08
2022-11-09T20:21:58.164Z,87.20
2022-11-09T20:24:32.626Z,87.05
2022-11-09T20:27:00.032Z,86.92
2022-11-09T20:29:27.106Z,87.19
2022-11-09T20:31:54.238Z,86.87
2022-11-09T20:34:21.347Z,87.15
2022-11-09T20:36:50.504Z,87.43
2022-11-09T20:39:18.457Z,86.42
2022-11-09T20:41:45.734Z,86.93
2022-11-09T20:44:13.464Z,85.62
2022-11-09T20:46:40.569Z,87.06
2022-11-09T20:49:09.238Z,87.30
2022-11-09T20:51:36.277Z,87.94
2022-11-09T20:54:07.243Z,87.30
2022-11-09T20:56:36.196Z,87.46
2022-11-09T20:59:03.728Z,87.03
2022-11-09T21:01:30.890Z,87.58
2022-11-09T21:03:58.305Z,87.55
2022-11-09T21:06:28.568Z,87.73
2022-11-09T21:08:56.907Z,88.38
2022-11-09T21:11:28.431Z,87.47
2022-11-09T21:13:56.277Z,88.01
2022-11-09T21:16:24.034Z,88.15
2022-11-09T21:18:51.221Z,88.28
2022-11-09T21:21:24.936Z,89.13
2022-11-09T21:24:27.281Z,88.61
2022-11-09T21:27:13.251Z,87.90
2022-11-09T21:29:52.855Z,88.41
2022-11-09T21:32:21.636Z,88.23
2022-11-09T21:34:50.237Z,88.99
2022-11-09T21:37:17.627Z,88.36
2022-11-09T21:39:44.892Z,87.80
2022-11-09T21:42:12.072Z,87.96
2022-11-09T21:44:39.672Z,88.14
2022-11-09T21:47:08.138Z,89.05
2022-11-09T21:49:35.465Z,87.85
2022-11-09T21:52:03.467Z,87.78
2022-11-09T21:54:30.778Z,87.67
2022-11-09T21:56:58.672Z,87.83
2022-11-09T21:59:25.710Z,87.96
2022-11-09T22:01:52.836Z,88.24
2022-11-09T22:04:19.883Z,88.52
2022-11-09T22:06:47.021Z,88.33
2022-11-09T22:09:17.955Z,87.98
2022-11-09T22:12:04.442Z,88.02
2022-11-09T22:14:50.082Z,87.80
2022-11-09T22:17:17.072Z,88.28
2022-11-09T22:20:02.998Z,88.15
2022-11-09T22:22:31.525Z,87.89
2022-11-09T22:24:59.222Z,88.28
2022-11-09T22:27:26.477Z,86.80
2022-11-09T22:29:53.470Z,87.22
2022-11-09T22:32:21.130Z,86.69
2022-11-09T22:34:48.434Z,86.85
2022-11-09T22:37:15.844Z,86.67
2022-11-09T22:39:47.197Z,86.19
2022-11-09T22:42:14.752Z,86.14
2022-11-09T22:44:41.884Z,86.71
2022-11-09T22:47:09.081Z,86.58
2022-11-09T22:49:36.846Z,86.28
2022-11-09T22:52:05.127Z,86.50
2022-11-09T22:54:32.259Z,86.80
2022-11-09T22:56:59.258Z,86.38
2022-11-09T22:59:26.583Z,86.23
2022-11-09T23:01:53.627Z,86.09
2022-11-09T23:04:20.746Z,86.09
2022-11-09T23:06:47.883Z,86.32
2022-11-09T23:09:15.191Z,86.07
2022-11-09T23:11:42.470Z,86.21
2022-11-09T23:14:09.909Z,85.60
2022-11-09T23:16:37.003Z,85.67
2022-11-09T23:19:04.231Z,85.92
2022-11-09T23:21:37.282Z,85.52
2022-11-09T23:24:27.731Z,85.82
2022-11-09T23:26:54.811Z,85.14
2022-11-09T23:29:21.979Z,83.99
2022-11-09T23:31:48.980Z,83.90
2022-11-09T23:34:16.319Z,83.04
2022-11-09T23:36:43.304Z,83.31
2022-11-09T23:39:10.529Z,82.14
2022-11-09T23:41:37.499Z,82.07
2022-11-09T23:44:04.582Z,82.59
2022-11-09T23:46:31.630Z,81.99
2022-11-09T23:48:58.625Z,81.08
2022-11-09T23:51:25.594Z,81.84
2022-11-09T23:53:52.639Z,81.59
2022-11-09T23:56:21.108Z,82.11
2022-11-09T23:58:51.710Z,81.88
